createdAt,value
2022-11-20T00:00:28.433Z,69.61
2022-11-20T00:02:31.054Z,69.17
2022-11-20T00:04:33.646Z,69.46
2022-11-20T00:06:36.243Z,69.00
2022-11-20T00:08:39.315Z,69.26
2022-11-20T00:10:42.623Z,69.35
2022-11-20T00:12:46.515Z,70.02
2022-11-20T00:14:49.082Z,70.22
2022-11-20T00:16:51.721Z,70.09
2022-11-20T00:18:54.617Z,69.99
2022-11-20T00:21:02.836Z,70.12
2022-11-20T00:23:08.097Z,70.37
2022-11-20T00:25:10.779Z,70.40
2022-11-20T00:27:13.397Z,70.55
2022-11-20T00:29:17.348Z,70.19
2022-11-20T00:31:20.351Z,70.66
2022-11-20T00:33:22.949Z,70.65
2022-11-20T00:35:25.696Z,70.94
2022-11-20T00:37:28.405Z,70.51
2022-11-20T00:39:31.002Z,71.13
2022-11-20T00:41:33.884Z,71.10
2022-11-20T00:43:37.084Z,71.21
2022-11-20T00:45:41.425Z,71.00
2022-11-20T00:47:44.024Z,70.34
2022-11-20T00:49:46.629Z,70.63
2022-11-20T00:51:49.212Z,70.33
2022-11-20T00:53:52.101Z,70.67
2022-11-20T00:55:56.330Z,70.79
2022-11-20T00:58:02.393Z,71.09
2022-11-20T01:00:08.453Z,70.87
2022-11-20T01:02:12.412Z,71.06
2022-11-20T01:04:17.127Z,71.24
2022-11-20T01:06:22.519Z,71.34
2022-11-20T01:08:25.149Z,71.26
2022-11-20T01:10:27.869Z,71.03
2022-11-20T01:12:30.428Z,71.00
2022-11-20T01:14:33.045Z,70.98
2022-11-20T01:16:38.174Z,71.03
2022-11-20T01:18:43.871Z,71.05
2022-11-20T01:20:46.496Z,70.96
2022-11-20T01:22:49.074Z,70.95
2022-11-20T01:24:51.670Z,71.10
2022-11-20T01:26:54.409Z,70.97
2022-11-20T01:28:58.541Z,70.98
2022-11-20T01:31:01.941Z,70.99
2022-11-20T01:33:04.549Z,71.07
2022-11-20T01:35:10.595Z,71.18
2022-11-20T01:37:13.309Z,71.42
2022-11-20T01:39:18.308Z,71.65
2022-11-20T01:41:35.418Z,71.46
2022-11-20T01:43:38.434Z,71.62
2022-11-20T01:45:58.321Z,71.35
2022-11-20T01:48:00.998Z,71.49
2022-11-20T01:50:14.753Z,71.70
2022-11-20T01:52:20.210Z,71.80
2022-11-20T01:54:27.542Z,71.92
2022-11-20T01:56:33.136Z,71.86
2022-11-20T01:58:41.561Z,71.67
2022-11-20T02:00:44.765Z,71.57
2022-11-20T02:02:51.371Z,71.66
2022-11-20T02:04:58.867Z,71.64
2022-11-20T02:07:04.567Z,72.20
2022-11-20T02:09:07.222Z,72.11
2022-11-20T02:11:10.038Z,71.94
2022-11-20T02:13:30.333Z,71.93
2022-11-20T02:15:35.025Z,71.80
2022-11-20T02:17:37.663Z,71.72
2022-11-20T02:19:43.718Z,72.00
2022-11-20T02:21:52.841Z,72.14
2022-11-20T02:24:02.490Z,72.19
2022-11-20T02:26:09.509Z,72.13
2022-11-20T02:28:12.353Z,71.87
2022-11-20T02:30:15.122Z,72.16
2022-11-20T02:32:21.320Z,72.11
2022-11-20T02:34:23.999Z,72.21
2022-11-20T02:36:29.711Z,72.32
2022-11-20T02:38:32.317Z,72.41
2022-11-20T02:40:36.233Z,72.12
2022-11-20T02:42:39.208Z,72.36
2022-11-20T02:44:41.808Z,72.03
2022-11-20T02:46:44.369Z,71.76
2022-11-20T02:48:46.998Z,71.51
2022-11-20T02:50:49.643Z,71.19
2022-11-20T02:52:52.218Z,70.67
2022-11-20T02:54:54.934Z,70.33
2022-11-20T02:56:58.860Z,70.41
2022-11-20T02:59:01.462Z,70.81
2022-11-20T03:01:04.080Z,70.84
2022-11-20T03:03:06.731Z,70.11
2022-11-20T03:05:09.628Z,69.64
2022-11-20T03:07:12.308Z,69.35
2022-11-20T03:09:15.099Z,69.52
2022-11-20T03:11:17.842Z,67.72
2022-11-20T03:13:21.789Z,68.35
2022-11-20T03:15:24.424Z,68.55
2022-11-20T03:17:27.027Z,68.08
2022-11-20T03:19:29.856Z,67.94
2022-11-20T03:21:32.519Z,67.46
2022-11-20T03:23:35.894Z,67.80
2022-11-20T03:25:38.530Z,68.14
2022-11-20T03:27:41.100Z,68.36
2022-11-20T03:29:45.027Z,67.91
2022-11-20T03:31:47.854Z,67.22
2022-11-20T03:33:50.680Z,67.36
2022-11-20T03:35:53.291Z,67.62
2022-11-20T03:37:55.887Z,67.57
2022-11-20T03:39:58.532Z,67.25
2022-11-20T03:42:01.161Z,67.27
2022-11-20T03:44:06.073Z,67.31
2022-11-20T03:46:10.268Z,67.62
2022-11-20T03:48:12.851Z,67.50
2022-11-20T03:50:16.176Z,66.66
2022-11-20T03:52:18.752Z,66.90
2022-11-20T03:54:21.369Z,67.22
2022-11-20T03:56:26.495Z,67.26
2022-11-20T03:58:29.139Z,66.82
2022-11-20T04:00:31.799Z,66.76
2022-11-20T04:02:35.728Z,67.50
2022-11-20T04:04:38.344Z,67.59
2022-11-20T04:06:41.042Z,66.35
2022-11-20T04:08:47.525Z,66.05
2022-11-20T04:10:52.346Z,66.06
2022-11-20T04:12:54.912Z,66.50
2022-11-20T04:14:57.465Z,66.57
2022-11-20T04:17:00.028Z,66.43
2022-11-20T04:19:05.598Z,66.18
2022-11-20T04:21:08.953Z,66.44
2022-11-20T04:23:11.505Z,66.30
2022-11-20T04:25:14.105Z,66.51
2022-11-20T04:27:16.743Z,66.09
2022-11-20T04:29:19.698Z,65.69
2022-11-20T04:31:24.014Z,65.52
2022-11-20T04:33:28.938Z,65.16
2022-11-20T04:35:37.751Z,65.28
2022-11-20T04:37:40.335Z,65.81
2022-11-20T04:39:43.146Z,65.74
2022-11-20T04:41:45.739Z,65.92
2022-11-20T04:43:49.962Z,66.26
2022-11-20T04:45:52.924Z,66.51
2022-11-20T04:47:55.525Z,66.38
2022-11-20T04:49:58.156Z,66.24
2022-11-20T04:52:02.196Z,66.10
2022-11-20T04:54:05.106Z,66.29
2022-11-20T04:56:09.939Z,65.73
2022-11-20T04:58:12.603Z,66.02
2022-11-20T05:00:16.651Z,65.63
2022-11-20T05:02:19.462Z,66.08
2022-11-20T05:04:22.067Z,65.37
2022-11-20T05:06:27.022Z,65.46
2022-11-20T05:08:31.590Z,64.72
2022-11-20T05:10:34.227Z,64.71
2022-11-20T05:12:36.824Z,65.02
2022-11-20T05:14:40.277Z,65.25
2022-11-20T05:16:42.923Z,65.61
2022-11-20T05:18:45.667Z,65.03
2022-11-20T05:20:48.273Z,64.72
2022-11-20T05:22:50.901Z,64.73
2022-11-20T05:24:54.846Z,65.35
2022-11-20T05:26:57.435Z,65.27
2022-11-20T05:29:00.195Z,65.10
2022-11-20T05:31:10.014Z,65.28
2022-11-20T05:33:12.618Z,65.27
2022-11-20T05:35:15.313Z,65.14
2022-11-20T05:37:17.874Z,64.72
2022-11-20T05:39:20.686Z,65.14
2022-11-20T05:41:24.798Z,64.87
2022-11-20T05:43:27.372Z,65.26
2022-11-20T05:45:30.383Z,65.03
2022-11-20T05:47:35.115Z,65.14
2022-11-20T05:49:37.778Z,65.12
2022-11-20T05:51:40.366Z,64.60
2022-11-20T05:53:48.068Z,63.27
2022-11-20T05:55:58.619Z,63.64
2022-11-20T05:58:02.550Z,64.35
2022-11-20T06:00:05.928Z,64.20
2022-11-20T06:02:08.521Z,64.15
2022-11-20T06:04:11.296Z,64.29
2022-11-20T06:06:14.348Z,64.52
2022-11-20T06:08:17.321Z,63.75
2022-11-20T06:10:19.981Z,64.56
2022-11-20T06:12:22.585Z,64.93
2022-11-20T06:14:26.622Z,64.11
2022-11-20T06:16:29.218Z,64.22
2022-11-20T06:18:32.034Z,64.58
2022-11-20T06:20:37.912Z,65.07
2022-11-20T06:22:44.451Z,64.30
2022-11-20T06:24:50.482Z,64.33
2022-11-20T06:26:53.372Z,64.05
2022-11-20T06:28:57.049Z,63.88
2022-11-20T06:31:01.377Z,64.33
2022-11-20T06:33:04.180Z,63.91
2022-11-20T06:35:07.287Z,64.21
2022-11-20T06:37:09.923Z,64.09
2022-11-20T06:39:12.700Z,64.49
2022-11-20T06:41:17.670Z,63.87
2022-11-20T06:43:20.251Z,64.58
2022-11-20T06:45:23.087Z,64.75
2022-11-20T06:47:27.013Z,64.22
2022-11-20T06:49:29.671Z,64.61
2022-11-20T06:51:32.263Z,64.91
2022-11-20T06:53:35.729Z,63.62
2022-11-20T06:55:38.295Z,64.39
2022-11-20T06:57:40.918Z,63.91
2022-11-20T06:59:43.747Z,64.11
2022-11-20T07:01:46.335Z,64.04
2022-11-20T07:03:54.440Z,64.79
2022-11-20T07:05:58.229Z,64.88
2022-11-20T07:08:01.168Z,64.87
2022-11-20T07:10:03.791Z,65.29
2022-11-20T07:12:07.071Z,65.13
2022-11-20T07:14:09.718Z,65.29
2022-11-20T07:16:12.352Z,64.87
2022-11-20T07:18:14.955Z,65.18
2022-11-20T07:20:19.345Z,65.33
2022-11-20T07:22:22.698Z,65.19
2022-11-20T07:24:25.385Z,65.58
2022-11-20T07:26:28.057Z,65.06
2022-11-20T07:28:30.626Z,65.12
2022-11-20T07:30:33.270Z,65.31
2022-11-20T07:32:35.916Z,65.18
2022-11-20T07:34:38.494Z,65.13
2022-11-20T07:36:42.746Z,65.63
2022-11-20T07:38:45.387Z,65.36
2022-11-20T07:40:48.027Z,64.94
2022-11-20T07:42:51.244Z,64.86
2022-11-20T07:44:53.864Z,65.85
2022-11-20T07:46:56.458Z,65.78
2022-11-20T07:48:59.157Z,65.74
2022-11-20T07:51:01.803Z,65.56
2022-11-20T07:53:06.935Z,65.66
2022-11-20T07:55:11.131Z,65.70
2022-11-20T07:57:13.710Z,65.28
2022-11-20T07:59:16.535Z,65.52
2022-11-20T08:01:19.248Z,65.20
2022-11-20T08:03:25.172Z,66.08
2022-11-20T08:05:28.506Z,66.12
2022-11-20T08:07:31.240Z,65.79
2022-11-20T08:09:35.280Z,65.86
2022-11-20T08:11:55.720Z,66.19
2022-11-20T08:14:13.653Z,66.22
2022-11-20T08:16:16.259Z,65.78
2022-11-20T08:18:34.888Z,65.13
2022-11-20T08:20:37.552Z,65.47
2022-11-20T08:22:40.163Z,66.06
2022-11-20T08:24:44.112Z,65.63
2022-11-20T08:26:46.727Z,64.93
2022-11-20T08:28:49.331Z,65.31
2022-11-20T08:30:52.070Z,65.28
2022-11-20T08:32:55.099Z,65.29
2022-11-20T08:34:57.725Z,65.83
2022-11-20T08:37:00.396Z,65.91
2022-11-20T08:39:03.443Z,66.15
2022-11-20T08:41:26.683Z,65.04
2022-11-20T08:43:29.321Z,65.25
2022-11-20T08:45:34.648Z,65.71
2022-11-20T08:47:37.768Z,65.96
2022-11-20T08:49:40.345Z,66.25
2022-11-20T08:51:43.975Z,66.39
2022-11-20T08:53:46.691Z,66.02
2022-11-20T08:55:49.686Z,65.75
2022-11-20T08:57:53.638Z,65.95
2022-11-20T09:00:06.021Z,65.67
2022-11-20T09:02:09.879Z,65.39
2022-11-20T09:04:12.740Z,65.76
2022-11-20T09:06:16.236Z,66.30
2022-11-20T09:08:18.922Z,65.93
2022-11-20T09:10:25.184Z,66.48
2022-11-20T09:12:28.007Z,66.56
2022-11-20T09:14:31.970Z,66.40
2022-11-20T09:16:34.620Z,66.16
2022-11-20T09:18:38.412Z,66.43
2022-11-20T09:20:41.051Z,66.35
2022-11-20T09:22:43.685Z,65.66
2022-11-20T09:24:46.330Z,66.37
2022-11-20T09:26:48.933Z,66.55
2022-11-20T09:28:56.776Z,66.42
2022-11-20T09:31:02.191Z,66.24
2022-11-20T09:33:06.448Z,66.25
2022-11-20T09:35:10.311Z,66.67
2022-11-20T09:37:12.913Z,66.96
2022-11-20T09:39:15.510Z,67.42
2022-11-20T09:41:38.297Z,68.00
2022-11-20T09:43:52.914Z,68.03
2022-11-20T09:46:05.164Z,68.49
2022-11-20T09:48:38.136Z,68.62
2022-11-20T09:50:48.692Z,68.24
2022-11-20T09:53:06.498Z,68.22
2022-11-20T09:55:12.411Z,68.21
2022-11-20T09:57:21.205Z,68.04
2022-11-20T09:59:34.948Z,68.29
2022-11-20T10:01:41.708Z,68.46
2022-11-20T10:03:53.644Z,68.92
2022-11-20T10:05:56.897Z,69.57
2022-11-20T10:08:14.617Z,69.37
2022-11-20T10:10:19.034Z,69.93
2022-11-20T10:12:29.103Z,70.44
2022-11-20T10:14:41.075Z,70.48
2022-11-20T10:16:56.423Z,70.64
2022-11-20T10:19:13.230Z,71.00
2022-11-20T10:21:25.753Z,71.31
2022-11-20T10:23:48.055Z,70.30
2022-11-20T10:25:58.213Z,70.16
2022-11-20T10:28:17.577Z,70.82
2022-11-20T10:30:22.960Z,70.80
2022-11-20T10:32:34.711Z,70.99
2022-11-20T10:34:50.881Z,71.17
2022-11-20T10:36:57.885Z,71.41
2022-11-20T10:39:05.873Z,71.73
2022-11-20T10:41:31.958Z,70.79
2022-11-20T10:43:37.596Z,70.84
2022-11-20T10:45:52.297Z,70.99
2022-11-20T10:48:00.983Z,69.88
2022-11-20T10:50:06.728Z,70.79
2022-11-20T10:52:17.880Z,70.58
2022-11-20T10:54:29.301Z,69.88
2022-11-20T10:56:38.006Z,70.65
2022-11-20T10:58:48.295Z,70.34
2022-11-20T11:00:50.951Z,70.73
2022-11-20T11:02:58.411Z,70.68
2022-11-20T11:05:14.539Z,70.39
2022-11-20T11:07:22.493Z,70.52
2022-11-20T11:09:34.128Z,70.99
2022-11-20T11:11:36.853Z,70.48
2022-11-20T11:13:39.484Z,70.59
2022-11-20T11:15:43.154Z,70.59
2022-11-20T11:17:49.289Z,71.16
2022-11-20T11:20:05.761Z,70.22
2022-11-20T11:22:18.790Z,69.53
2022-11-20T11:24:41.780Z,69.96
2022-11-20T11:26:54.079Z,69.88
2022-11-20T11:28:58.209Z,70.54
2022-11-20T11:31:01.055Z,71.15
2022-11-20T11:33:08.870Z,70.37
2022-11-20T11:35:24.440Z,70.88
2022-11-20T11:37:36.698Z,70.84
2022-11-20T11:39:43.942Z,70.61
2022-11-20T11:41:47.632Z,69.76
2022-11-20T11:44:12.973Z,70.21
2022-11-20T11:46:29.532Z,69.34
2022-11-20T11:48:32.126Z,68.68
2022-11-20T11:50:36.119Z,68.47
2022-11-20T11:52:46.259Z,68.20
2022-11-20T11:54:54.705Z,68.44
2022-11-20T11:57:01.092Z,68.89
2022-11-20T11:59:11.902Z,66.41
2022-11-20T12:01:28.177Z,66.32
2022-11-20T12:03:37.269Z,66.17
2022-11-20T12:05:46.931Z,66.62
2022-11-20T12:07:54.990Z,67.35
2022-11-20T12:09:59.707Z,67.09
2022-11-20T12:12:10.900Z,66.65
2022-11-20T12:14:20.650Z,66.82
2022-11-20T12:16:23.571Z,67.17
2022-11-20T12:18:26.236Z,66.02
2022-11-20T12:20:38.124Z,66.18
2022-11-20T12:22:46.882Z,65.21
2022-11-20T12:24:57.274Z,66.07
2022-11-20T12:27:16.149Z,65.97
2022-11-20T12:29:27.060Z,66.17
2022-11-20T12:31:47.025Z,65.59
2022-11-20T12:34:02.927Z,65.45
2022-11-20T12:36:18.398Z,65.86
2022-11-20T12:38:47.239Z,65.45
2022-11-20T12:40:56.303Z,65.68
2022-11-20T12:43:28.606Z,65.96
2022-11-20T12:46:03.801Z,63.93
2022-11-20T12:48:24.396Z,65.14
2022-11-20T12:50:53.403Z,63.52
2022-11-20T12:53:05.605Z,63.44
2022-11-20T12:55:22.571Z,62.49
2022-11-20T12:57:36.454Z,62.81
2022-11-20T13:00:03.167Z,63.05
2022-11-20T13:02:26.370Z,62.87
2022-11-20T13:04:52.185Z,62.78
2022-11-20T13:06:56.159Z,63.23
2022-11-20T13:08:58.833Z,63.46
2022-11-20T13:11:11.995Z,63.50
2022-11-20T13:13:22.051Z,64.08
2022-11-20T13:15:38.529Z,64.70
2022-11-20T13:17:46.823Z,64.64
2022-11-20T13:19:53.980Z,64.73
2022-11-20T13:21:56.627Z,64.36
2022-11-20T13:24:06.456Z,64.63
2022-11-20T13:26:19.429Z,65.08
2022-11-20T13:28:30.065Z,65.17
2022-11-20T13:30:33.502Z,63.72
2022-11-20T13:32:36.102Z,63.43
2022-11-20T13:34:38.742Z,64.42
2022-11-20T13:36:51.533Z,64.42
2022-11-20T13:38:55.918Z,64.22
2022-11-20T13:41:20.595Z,64.68
2022-11-20T13:43:38.735Z,64.81
2022-11-20T13:45:41.403Z,64.77
2022-11-20T13:47:50.418Z,62.46
2022-11-20T13:49:55.376Z,62.29
2022-11-20T13:52:24.996Z,62.55
2022-11-20T13:54:52.917Z,63.42
2022-11-20T13:57:12.718Z,63.94
2022-11-20T13:59:36.068Z,63.81
2022-11-20T14:01:40.203Z,63.21
2022-11-20T14:04:04.990Z,63.60
2022-11-20T14:06:14.535Z,63.65
2022-11-20T14:08:28.256Z,63.34
2022-11-20T14:10:32.663Z,62.19
2022-11-20T14:12:37.783Z,62.65
2022-11-20T14:14:50.546Z,61.06
2022-11-20T14:16:54.373Z,60.08
2022-11-20T14:18:57.994Z,58.14
2022-11-20T14:21:02.640Z,57.90
2022-11-20T14:23:06.100Z,57.17
2022-11-20T14:25:24.028Z,57.20
2022-11-20T14:27:26.677Z,57.60
2022-11-20T14:29:31.914Z,57.59
2022-11-20T14:31:35.867Z,58.37
2022-11-20T14:33:39.590Z,58.92
2022-11-20T14:35:48.109Z,58.61
2022-11-20T14:37:50.714Z,59.20
2022-11-20T14:39:55.642Z,59.38
2022-11-20T14:41:58.276Z,59.83
2022-11-20T14:44:03.032Z,60.07
2022-11-20T14:46:08.200Z,60.28
2022-11-20T14:48:12.931Z,60.76
2022-11-20T14:50:21.365Z,60.68
2022-11-20T14:52:25.806Z,60.52
2022-11-20T14:54:29.302Z,60.70
2022-11-20T14:56:31.979Z,60.70
2022-11-20T14:58:35.710Z,61.39
2022-11-20T15:00:38.425Z,61.88
2022-11-20T15:02:43.025Z,62.18
2022-11-20T15:04:51.878Z,62.44
2022-11-20T15:06:56.775Z,63.15
2022-11-20T15:09:00.009Z,63.24
2022-11-20T15:11:03.919Z,63.55
2022-11-20T15:13:13.260Z,63.41
2022-11-20T15:15:21.401Z,63.35
2022-11-20T15:17:24.610Z,62.59
2022-11-20T15:19:29.412Z,62.90
2022-11-20T15:21:33.382Z,63.05
2022-11-20T15:23:36.525Z,62.44
2022-11-20T15:25:40.338Z,62.84
2022-11-20T15:27:43.499Z,62.11
2022-11-20T15:29:46.106Z,62.56
2022-11-20T15:31:48.745Z,62.55
2022-11-20T15:33:51.612Z,62.68
2022-11-20T15:35:54.320Z,63.17
2022-11-20T15:37:58.776Z,63.60
2022-11-20T15:40:01.426Z,64.02
2022-11-20T15:42:04.193Z,63.85
2022-11-20T15:44:07.137Z,63.87
2022-11-20T15:46:14.717Z,63.75
2022-11-20T15:48:22.107Z,64.10
2022-11-20T15:50:30.497Z,64.20
2022-11-20T15:52:42.000Z,64.91
2022-11-20T15:54:46.256Z,65.09
2022-11-20T15:56:49.348Z,64.88
2022-11-20T15:58:51.946Z,65.39
2022-11-20T16:00:54.918Z,65.54
2022-11-20T16:02:57.572Z,65.12
2022-11-20T16:05:00.169Z,65.08
2022-11-20T16:07:02.862Z,64.89
2022-11-20T16:09:05.543Z,65.25
2022-11-20T16:11:14.227Z,65.62
2022-11-20T16:13:36.453Z,65.97
2022-11-20T16:15:48.175Z,66.31
2022-11-20T16:17:50.755Z,66.39
2022-11-20T16:19:53.358Z,66.12
2022-11-20T16:22:01.202Z,65.96
2022-11-20T16:24:07.160Z,65.02
2022-11-20T16:26:16.745Z,64.22
2022-11-20T16:28:20.520Z,64.14
2022-11-20T16:30:23.258Z,63.85
2022-11-20T16:32:25.903Z,62.17
2022-11-20T16:34:28.860Z,61.83
2022-11-20T16:36:32.227Z,61.85
2022-11-20T16:38:34.941Z,62.24
2022-11-20T16:40:37.554Z,62.19
2022-11-20T16:42:41.515Z,61.98
2022-11-20T16:44:47.514Z,61.28
2022-11-20T16:46:50.240Z,61.18
2022-11-20T16:48:58.029Z,61.15
2022-11-20T16:51:00.677Z,61.13
2022-11-20T16:53:03.246Z,61.02
2022-11-20T16:55:06.835Z,60.93
2022-11-20T16:57:09.493Z,61.42
2022-11-20T16:59:14.336Z,61.33
2022-11-20T17:01:20.855Z,61.24
2022-11-20T17:03:23.542Z,60.93
2022-11-20T17:05:26.167Z,60.95
2022-11-20T17:07:28.829Z,61.28
2022-11-20T17:09:31.489Z,61.65
2022-11-20T17:11:34.688Z,61.60
2022-11-20T17:13:39.992Z,61.74
2022-11-20T17:15:44.120Z,61.71
2022-11-20T17:17:46.736Z,61.59
2022-11-20T17:19:49.374Z,61.58
2022-11-20T17:21:51.998Z,61.76
2022-11-20T17:23:54.603Z,60.87
2022-11-20T17:26:03.523Z,61.38
2022-11-20T17:28:06.479Z,61.55
2022-11-20T17:30:09.990Z,61.05
2022-11-20T17:32:13.993Z,60.82
2022-11-20T17:34:16.986Z,60.75
2022-11-20T17:36:20.307Z,60.79
2022-11-20T17:38:23.432Z,60.24
2022-11-20T17:40:27.736Z,60.81
2022-11-20T17:42:36.680Z,60.94
2022-11-20T17:44:40.914Z,61.01
2022-11-20T17:46:43.591Z,61.21
2022-11-20T17:48:50.936Z,61.36
2022-11-20T17:50:53.582Z,61.65
2022-11-20T17:52:56.179Z,61.96
2022-11-20T17:54:59.770Z,61.48
2022-11-20T17:57:19.712Z,61.22
2022-11-20T17:59:22.945Z,61.38
2022-11-20T18:01:25.889Z,61.51
2022-11-20T18:03:28.510Z,61.38
2022-11-20T18:05:32.437Z,61.08
2022-11-20T18:07:40.241Z,61.13
2022-11-20T18:09:44.199Z,61.13
2022-11-20T18:11:46.825Z,61.43
2022-11-20T18:14:09.882Z,61.75
2022-11-20T18:16:12.919Z,60.79
2022-11-20T18:18:15.526Z,60.47
2022-11-20T18:20:29.457Z,60.98
2022-11-20T18:22:35.198Z,61.06
2022-11-20T18:24:39.472Z,61.31
2022-11-20T18:26:44.549Z,61.63
2022-11-20T18:28:47.843Z,61.54
2022-11-20T18:30:50.477Z,61.12
2022-11-20T18:32:53.061Z,61.00
2022-11-20T18:34:55.664Z,60.25
2022-11-20T18:36:58.344Z,60.50
2022-11-20T18:39:02.618Z,60.38
2022-11-20T18:41:05.229Z,60.62
2022-11-20T18:43:25.725Z,60.74
2022-11-20T18:45:29.027Z,59.86
2022-11-20T18:47:35.663Z,59.76
2022-11-20T18:49:38.897Z,59.15
2022-11-20T18:51:44.041Z,59.16
2022-11-20T18:53:47.651Z,59.35
2022-11-20T18:55:51.730Z,60.00
2022-11-20T18:57:55.157Z,60.31
2022-11-20T19:00:04.838Z,60.46
2022-11-20T19:02:12.200Z,59.68
2022-11-20T19:04:16.494Z,58.79
2022-11-20T19:06:19.696Z,59.57
2022-11-20T19:08:22.254Z,59.21
2022-11-20T19:10:26.888Z,59.35
2022-11-20T19:12:31.015Z,59.02
2022-11-20T19:14:33.617Z,59.73
2022-11-20T19:16:36.648Z,59.60
2022-11-20T19:18:39.606Z,60.75
2022-11-20T19:20:42.223Z,60.70
2022-11-20T19:22:44.889Z,61.31
2022-11-20T19:24:47.495Z,61.76
2022-11-20T19:26:50.137Z,62.34
2022-11-20T19:28:54.722Z,62.60
2022-11-20T19:30:57.353Z,63.18
2022-11-20T19:32:59.952Z,63.84
2022-11-20T19:35:03.549Z,63.91
2022-11-20T19:37:06.334Z,64.28
2022-11-20T19:39:11.040Z,64.77
2022-11-20T19:41:14.442Z,65.60
2022-11-20T19:43:17.532Z,65.66
2022-11-20T19:45:21.565Z,65.92
2022-11-20T19:47:35.397Z,65.55
2022-11-20T19:49:46.753Z,65.34
2022-11-20T19:51:51.011Z,65.47
2022-11-20T19:53:53.985Z,65.50
2022-11-20T19:55:57.589Z,65.31
2022-11-20T19:58:00.323Z,65.70
2022-11-20T20:00:03.047Z,65.57
2022-11-20T20:02:07.284Z,65.01
2022-11-20T20:04:10.161Z,65.26
2022-11-20T20:06:15.125Z,65.68
2022-11-20T20:08:17.875Z,66.37
2022-11-20T20:10:20.504Z,66.77
2022-11-20T20:12:23.117Z,65.27
2022-11-20T20:14:26.151Z,65.27
2022-11-20T20:16:28.961Z,65.72
2022-11-20T20:18:32.877Z,65.52
2022-11-20T20:20:35.506Z,66.01
2022-11-20T20:22:41.096Z,66.27
2022-11-20T20:24:43.780Z,65.44
2022-11-20T20:26:46.346Z,66.20
2022-11-20T20:28:49.246Z,66.04
2022-11-20T20:30:51.897Z,66.10
2022-11-20T20:32:56.470Z,66.65
2022-11-20T20:35:00.891Z,66.69
2022-11-20T20:37:05.200Z,66.41
2022-11-20T20:39:07.835Z,66.35
2022-11-20T20:41:10.771Z,66.52
2022-11-20T20:43:13.440Z,67.20
2022-11-20T20:45:15.209Z,66.94
2022-11-20T20:47:17.818Z,67.28
2022-11-20T20:49:20.449Z,66.99
2022-11-20T20:51:24.827Z,67.29
2022-11-20T20:53:28.078Z,67.06
2022-11-20T20:55:30.684Z,66.92
2022-11-20T20:57:34.030Z,67.02
2022-11-20T20:59:36.734Z,66.63
2022-11-20T21:01:39.422Z,66.69
2022-11-20T21:03:42.634Z,66.67
2022-11-20T21:05:45.480Z,66.75
2022-11-20T21:08:06.901Z,66.76
2022-11-20T21:10:09.854Z,67.42
2022-11-20T21:12:12.479Z,67.49
2022-11-20T21:14:15.191Z,67.67
2022-11-20T21:16:20.581Z,67.45
2022-11-20T21:18:24.173Z,67.50
2022-11-20T21:20:44.455Z,67.52
2022-11-20T21:22:47.081Z,67.85
2022-11-20T21:24:51.003Z,68.19
2022-11-20T21:26:53.700Z,68.23
2022-11-20T21:28:58.009Z,68.10
2022-11-20T21:31:05.635Z,68.69
2022-11-20T21:33:08.304Z,68.69
2022-11-20T21:35:10.885Z,68.83
2022-11-20T21:37:13.520Z,69.55
2022-11-20T21:39:17.774Z,69.94
2022-11-20T21:41:22.014Z,69.36
2022-11-20T21:43:24.632Z,69.17
2022-11-20T21:45:27.212Z,68.47
2022-11-20T21:47:31.007Z,68.95
2022-11-20T21:49:33.645Z,69.19
2022-11-20T21:51:36.559Z,69.28
2022-11-20T21:53:39.324Z,69.80
2022-11-20T21:55:41.983Z,69.50
2022-11-20T21:57:45.947Z,70.79
2022-11-20T21:59:48.528Z,71.02
2022-11-20T22:01:51.188Z,70.75
2022-11-20T22:03:56.702Z,70.87
2022-11-20T22:06:00.334Z,70.74
2022-11-20T22:08:02.975Z,70.65
2022-11-20T22:10:06.247Z,70.58
2022-11-20T22:12:08.927Z,70.40
2022-11-20T22:14:21.304Z,70.88
2022-11-20T22:16:24.704Z,70.80
2022-11-20T22:18:27.301Z,71.46
2022-11-20T22:20:29.895Z,72.02
2022-11-20T22:22:32.792Z,72.65
2022-11-20T22:24:35.384Z,73.05
2022-11-20T22:26:40.471Z,73.50
2022-11-20T22:28:43.385Z,73.53
2022-11-20T22:30:47.315Z,73.20
2022-11-20T22:32:49.950Z,73.92
2022-11-20T22:34:52.595Z,73.60
2022-11-20T22:36:55.348Z,73.60
2022-11-20T22:38:58.893Z,73.82
2022-11-20T22:41:05.538Z,74.19
2022-11-20T22:43:08.111Z,74.00
2022-11-20T22:45:12.035Z,74.43
2022-11-20T22:47:16.020Z,74.88
2022-11-20T22:49:18.601Z,74.72
2022-11-20T22:51:23.374Z,73.84
2022-11-20T22:53:26.255Z,75.70
2022-11-20T22:55:28.828Z,74.61
2022-11-20T22:57:32.485Z,74.85
2022-11-20T22:59:35.077Z,75.00
2022-11-20T23:01:38.414Z,75.32
2022-11-20T23:03:43.694Z,75.80
2022-11-20T23:05:46.340Z,76.22
2022-11-20T23:07:48.954Z,76.12
2022-11-20T23:09:51.541Z,76.50
2022-11-20T23:11:54.118Z,76.05
2022-11-20T23:13:58.573Z,76.20
2022-11-20T23:16:03.278Z,76.63
2022-11-20T23:18:05.988Z,77.16
2022-11-20T23:20:11.680Z,75.67
2022-11-20T23:22:14.255Z,75.81
2022-11-20T23:24:16.844Z,76.86
2022-11-20T23:26:23.312Z,76.74
2022-11-20T23:28:25.929Z,76.16
2022-11-20T23:30:28.509Z,75.63
2022-11-20T23:32:31.075Z,75.20
2022-11-20T23:34:33.635Z,75.79
2022-11-20T23:36:37.572Z,76.50
2022-11-20T23:38:40.432Z,76.40
2022-11-20T23:40:43.011Z,76.27
2022-11-20T23:42:59.541Z,76.29
2022-11-20T23:45:02.161Z,75.16
2022-11-20T23:47:07.771Z,75.33
2022-11-20T23:49:10.461Z,75.60
2022-11-20T23:51:13.429Z,75.80
2022-11-20T23:53:18.644Z,76.15
2022-11-20T23:55:21.327Z,76.31
2022-11-20T23:57:23.897Z,76.27
2022-11-20T23:59:26.495Z,74.91
